createdAt,value
2023-03-05T00:00:32.127Z,9.60
2023-03-05T00:02:39.388Z,13.38
2023-03-05T00:04:44.671Z,9.43
2023-03-05T00:06:49.623Z,8.18
2023-03-05T00:08:56.873Z,15.50
2023-03-05T00:11:02.930Z,7.00
2023-03-05T00:13:10.523Z,11.45
2023-03-05T00:15:18.173Z,10.45
2023-03-05T00:17:23.567Z,9.70
2023-03-05T00:19:28.524Z,9.30
2023-03-05T00:21:36.252Z,8.30
2023-03-05T00:23:42.615Z,5.53
2023-03-05T00:25:48.319Z,7.97
2023-03-05T00:27:53.582Z,9.80
2023-03-05T00:30:02.229Z,10.73
2023-03-05T00:32:08.191Z,10.88
2023-03-05T00:34:19.867Z,10.18
2023-03-05T00:36:27.327Z,10.70
2023-03-05T00:38:33.107Z,6.43
2023-03-05T00:40:40.318Z,12.27
2023-03-05T00:42:48.713Z,7.93
2023-03-05T00:44:53.749Z,11.05
2023-03-05T00:47:02.815Z,7.28
2023-03-05T00:49:08.728Z,9.85
2023-03-05T00:51:13.777Z,12.20
2023-03-05T00:53:18.769Z,12.00
2023-03-05T00:55:23.959Z,10.75
2023-03-05T00:57:31.174Z,9.02
2023-03-05T00:59:37.495Z,11.95
2023-03-05T01:01:44.052Z,13.70
2023-03-05T01:03:51.590Z,8.43
2023-03-05T01:05:58.425Z,9.00
2023-03-05T01:08:04.289Z,6.57
2023-03-05T01:10:14.127Z,4.25
2023-03-05T01:12:21.556Z,7.28
2023-03-05T01:14:27.885Z,9.18
2023-03-05T01:16:32.934Z,12.18
2023-03-05T01:18:40.935Z,3.63
2023-03-05T01:20:49.056Z,4.38
2023-03-05T01:22:54.849Z,5.43
2023-03-05T01:24:59.815Z,9.60
2023-03-05T01:27:05.121Z,8.10
2023-03-05T01:29:12.575Z,4.53
2023-03-05T01:31:18.873Z,6.05
2023-03-05T01:33:23.847Z,12.80
2023-03-05T01:35:32.794Z,7.43
2023-03-05T01:37:40.780Z,9.50
2023-03-05T01:41:52.712Z,5.85
2023-03-05T01:44:01.867Z,10.32
2023-03-05T01:46:35.299Z,7.68
2023-03-05T01:48:40.800Z,6.25
2023-03-05T01:50:45.985Z,9.07
2023-03-05T01:53:01.718Z,5.85
2023-03-05T01:55:12.450Z,8.27
2023-03-05T01:57:21.184Z,9.13
2023-03-05T01:59:28.058Z,7.30
2023-03-05T02:01:42.458Z,12.43
2023-03-05T02:03:49.034Z,10.45
2023-03-05T02:05:54.783Z,9.23
2023-03-05T02:08:10.196Z,8.73
2023-03-05T02:10:21.253Z,8.35
2023-03-05T02:12:27.569Z,9.93
2023-03-05T02:14:32.786Z,8.90
2023-03-05T02:16:41.329Z,5.28
2023-03-05T02:18:47.417Z,7.85
2023-03-05T02:20:57.008Z,6.57
2023-03-05T02:23:06.493Z,5.70
2023-03-05T02:25:21.099Z,7.40
2023-03-05T02:27:36.539Z,10.43
2023-03-05T02:29:47.867Z,7.65
2023-03-05T02:31:53.179Z,6.57
2023-03-05T02:33:58.780Z,6.38
2023-03-05T02:36:07.049Z,5.03
2023-03-05T02:42:27.665Z,5.82
2023-03-05T02:44:34.031Z,4.95
2023-03-05T02:46:38.992Z,5.40
2023-03-05T02:48:44.848Z,17.45
2023-03-05T02:50:52.470Z,7.07
2023-03-05T02:52:57.703Z,12.70
2023-03-05T02:55:05.608Z,7.78
2023-03-05T02:57:11.578Z,4.93
2023-03-05T02:59:17.568Z,6.93
2023-03-05T03:01:22.509Z,5.10
2023-03-05T03:03:27.676Z,8.25
2023-03-05T03:05:32.646Z,8.27
2023-03-05T03:07:38.348Z,3.85
2023-03-05T03:09:44.341Z,5.57
2023-03-05T03:11:54.068Z,4.22
2023-03-05T03:14:00.180Z,4.07
2023-03-05T03:16:10.461Z,3.53
2023-03-05T03:18:15.355Z,5.88
2023-03-05T03:20:22.319Z,6.63
2023-03-05T03:22:27.223Z,4.17
2023-03-05T03:24:35.885Z,4.43
2023-03-05T03:26:41.001Z,8.07
2023-03-05T03:28:48.753Z,5.45
2023-03-05T03:30:56.907Z,8.13
2023-03-05T03:33:01.801Z,6.13
2023-03-05T03:35:07.817Z,6.97
2023-03-05T03:37:12.802Z,3.63
2023-03-05T03:39:20.753Z,7.30
2023-03-05T03:41:26.719Z,5.93
2023-03-05T03:43:32.460Z,7.38
2023-03-05T03:45:48.432Z,4.22
2023-03-05T03:47:54.276Z,5.82
2023-03-05T03:49:59.276Z,8.20
2023-03-05T03:52:04.208Z,3.88
2023-03-05T03:54:09.228Z,6.35
2023-03-05T03:56:14.154Z,4.38
2023-03-05T03:58:19.559Z,6.25
2023-03-05T04:00:25.039Z,5.85
2023-03-05T04:02:34.950Z,4.25
2023-03-05T04:04:39.987Z,6.75
2023-03-05T04:06:46.430Z,7.00
2023-03-05T04:08:51.375Z,7.35
2023-03-05T04:10:56.313Z,4.57
2023-03-05T04:13:01.251Z,5.70
2023-03-05T04:15:10.386Z,6.78
2023-03-05T04:17:16.020Z,3.92
2023-03-05T04:19:24.741Z,4.72
2023-03-05T04:21:30.538Z,4.80
2023-03-05T04:23:35.526Z,4.80
2023-03-05T04:25:41.466Z,5.10
2023-03-05T04:27:49.056Z,3.80
2023-03-05T04:29:53.902Z,6.10
2023-03-05T04:31:59.511Z,3.50
2023-03-05T04:34:04.414Z,6.93
2023-03-05T04:36:15.082Z,5.40
2023-03-05T04:40:26.027Z,4.30
2023-03-05T04:42:31.029Z,5.10
2023-03-05T04:44:35.897Z,4.07
2023-03-05T04:46:41.218Z,3.58
2023-03-05T04:48:46.206Z,3.33
2023-03-05T04:50:51.119Z,5.85
2023-03-05T04:53:00.581Z,7.75
2023-03-05T04:55:05.815Z,3.25
2023-03-05T04:57:11.814Z,5.05
2023-03-05T04:59:16.816Z,5.28
2023-03-05T05:01:23.872Z,3.35
2023-03-05T05:03:29.119Z,6.15
2023-03-05T05:05:36.222Z,6.22
2023-03-05T05:07:44.828Z,3.00
2023-03-05T05:09:52.709Z,6.95
2023-03-05T05:11:59.316Z,3.13
2023-03-05T05:14:04.679Z,4.90
2023-03-05T05:16:10.532Z,2.22
2023-03-05T05:18:15.435Z,4.13
2023-03-05T05:20:21.248Z,9.43
2023-03-05T05:22:30.996Z,5.40
2023-03-05T05:24:37.952Z,5.18
2023-03-05T05:26:47.168Z,5.13
2023-03-05T05:28:54.466Z,3.97
2023-03-05T05:30:59.828Z,3.35
2023-03-05T05:33:04.757Z,5.22
2023-03-05T05:35:12.796Z,3.00
2023-03-05T05:37:18.338Z,4.15
2023-03-05T05:39:24.479Z,2.78
2023-03-05T05:41:31.103Z,8.48
2023-03-05T05:43:38.792Z,4.63
2023-03-05T05:45:43.833Z,3.58
2023-03-05T05:47:49.528Z,5.53
2023-03-05T05:49:56.890Z,4.95
2023-03-05T05:52:04.295Z,3.63
2023-03-05T05:56:16.607Z,2.72
2023-03-05T05:58:27.349Z,5.40
2023-03-05T06:00:34.850Z,3.03
2023-03-05T06:02:41.724Z,4.18
2023-03-05T06:04:50.470Z,4.80
2023-03-05T06:06:55.691Z,3.38
2023-03-05T06:09:00.757Z,5.38
2023-03-05T06:11:06.895Z,6.53
2023-03-05T06:13:11.806Z,3.90
2023-03-05T06:15:17.073Z,2.65
2023-03-05T06:17:30.357Z,5.00
2023-03-05T06:19:36.561Z,2.17
2023-03-05T06:21:43.443Z,2.80
2023-03-05T06:23:49.898Z,3.13
2023-03-05T06:25:55.175Z,6.80
2023-03-05T06:28:01.152Z,4.55
2023-03-05T06:30:07.714Z,7.80
2023-03-05T06:32:12.676Z,3.15
2023-03-05T06:34:22.376Z,3.28
2023-03-05T06:36:29.337Z,2.65
2023-03-05T06:38:35.617Z,1.27
2023-03-05T06:40:42.387Z,2.97
2023-03-05T06:42:47.293Z,1.70
2023-03-05T06:44:52.595Z,2.10
2023-03-05T06:46:57.601Z,4.32
2023-03-05T06:49:05.664Z,4.47
2023-03-05T06:51:20.320Z,2.53
2023-03-05T06:53:28.609Z,3.38
2023-03-05T06:55:40.463Z,3.70
2023-03-05T06:57:45.354Z,2.55
2023-03-05T06:59:51.147Z,4.40
2023-03-05T07:01:56.369Z,2.85
2023-03-05T07:04:03.129Z,2.53
2023-03-05T07:06:10.895Z,2.63
2023-03-05T07:08:19.440Z,2.45
2023-03-05T07:10:24.377Z,3.50
2023-03-05T07:12:29.975Z,4.40
2023-03-05T07:14:37.194Z,3.22
2023-03-05T07:16:42.436Z,1.48
2023-03-05T07:18:48.639Z,2.58
2023-03-05T07:20:53.504Z,1.70
2023-03-05T07:23:01.913Z,1.48
2023-03-05T07:25:11.050Z,3.35
2023-03-05T07:27:18.486Z,3.50
2023-03-05T07:29:23.664Z,2.33
2023-03-05T07:31:32.310Z,2.08
2023-03-05T07:33:38.109Z,2.63
2023-03-05T07:35:44.148Z,2.92
2023-03-05T07:37:49.045Z,5.18
2023-03-05T07:39:54.902Z,6.88
2023-03-05T07:42:02.639Z,2.35
2023-03-05T07:44:27.655Z,5.22
2023-03-05T07:46:37.730Z,2.55
2023-03-05T07:48:42.682Z,3.67
2023-03-05T07:50:49.473Z,2.20
2023-03-05T07:52:56.953Z,2.90
2023-03-05T07:55:03.743Z,4.57
2023-03-05T07:57:13.867Z,3.38
2023-03-05T07:59:19.066Z,3.97
2023-03-05T08:01:25.686Z,1.02
2023-03-05T08:03:30.688Z,2.72
2023-03-05T08:05:36.432Z,3.28
2023-03-05T08:07:42.800Z,0.95
2023-03-05T08:09:48.043Z,3.15
2023-03-05T08:11:53.817Z,1.13
2023-03-05T08:14:01.317Z,3.78
2023-03-05T08:16:13.836Z,1.20
2023-03-05T08:18:22.957Z,1.85
2023-03-05T08:20:31.500Z,3.92
2023-03-05T08:22:36.962Z,2.72
2023-03-05T08:24:42.959Z,0.98
2023-03-05T08:26:47.832Z,2.55
2023-03-05T08:28:53.728Z,2.60
2023-03-05T08:31:01.205Z,2.88
2023-03-05T08:33:06.555Z,1.95
2023-03-05T08:35:12.766Z,1.33
2023-03-05T08:37:18.931Z,2.78
2023-03-05T08:39:25.970Z,3.75
2023-03-05T08:41:32.761Z,1.70
2023-03-05T08:43:37.774Z,3.25
2023-03-05T08:45:43.132Z,3.20
2023-03-05T08:47:50.934Z,2.60
2023-03-05T08:52:03.447Z,2.08
2023-03-05T08:54:08.848Z,0.98
2023-03-05T08:56:15.818Z,2.15
2023-03-05T08:58:22.154Z,2.00
2023-03-05T09:00:27.997Z,3.08
2023-03-05T09:02:32.961Z,2.22
2023-03-05T09:04:45.509Z,4.15
2023-03-05T09:06:50.394Z,1.30
2023-03-05T09:08:55.810Z,2.28
2023-03-05T09:11:01.991Z,3.00
2023-03-05T09:13:07.868Z,2.53
2023-03-05T09:15:14.683Z,2.88
2023-03-05T09:17:20.328Z,1.92
2023-03-05T09:19:25.698Z,2.63
2023-03-05T09:21:33.764Z,3.13
2023-03-05T09:23:39.135Z,3.42
2023-03-05T09:25:45.930Z,5.22
2023-03-05T09:27:51.403Z,2.17
2023-03-05T09:29:57.622Z,1.70
2023-03-05T09:32:04.125Z,3.22
2023-03-05T09:34:10.854Z,5.13
2023-03-05T09:36:26.106Z,2.88
2023-03-05T09:38:33.637Z,4.07
2023-03-05T09:43:14.341Z,3.10
2023-03-05T09:45:29.048Z,6.65
2023-03-05T09:47:56.933Z,3.20
2023-03-05T09:50:08.561Z,3.70
2023-03-05T09:52:19.596Z,3.50
2023-03-05T09:54:37.988Z,3.40
2023-03-05T09:56:56.670Z,1.60
2023-03-05T09:59:13.899Z,1.88
2023-03-05T10:01:27.130Z,3.55
2023-03-05T10:03:46.211Z,4.53
2023-03-05T10:06:06.694Z,5.78
2023-03-05T10:10:26.519Z,1.58
2023-03-05T10:12:43.101Z,1.55
2023-03-05T10:14:48.123Z,4.30
2023-03-05T10:17:38.069Z,4.28
2023-03-05T10:20:42.397Z,2.45
2023-03-05T10:23:15.426Z,2.50
2023-03-05T10:25:37.308Z,2.25
2023-03-05T10:27:54.051Z,1.10
2023-03-05T10:30:15.695Z,2.78
2023-03-05T10:32:36.261Z,1.50
2023-03-05T10:35:12.035Z,1.45
2023-03-05T10:38:00.786Z,1.33
2023-03-05T10:40:27.839Z,2.10
2023-03-05T10:42:48.303Z,2.17
2023-03-05T10:44:57.553Z,2.80
2023-03-05T10:47:04.085Z,3.65
2023-03-05T10:49:21.160Z,4.07
2023-03-05T10:51:37.102Z,2.17
2023-03-05T10:53:55.985Z,4.00
2023-03-05T10:56:04.865Z,4.43
2023-03-05T10:58:19.243Z,3.53
2023-03-05T11:00:26.615Z,5.40
2023-03-05T11:02:31.926Z,4.93
2023-03-05T11:04:39.817Z,3.80
2023-03-05T11:06:52.804Z,5.78
2023-03-05T11:08:58.023Z,6.78
2023-03-05T11:11:18.520Z,4.05
2023-03-05T11:13:31.043Z,3.13
2023-03-05T11:15:35.974Z,3.70
2023-03-05T11:17:46.581Z,3.13
2023-03-05T11:19:51.617Z,3.92
2023-03-05T11:22:15.610Z,4.32
2023-03-05T11:24:23.626Z,6.65
2023-03-05T11:26:28.523Z,3.85
2023-03-05T11:28:44.669Z,4.40
2023-03-05T11:31:03.314Z,4.40
2023-03-05T11:33:16.056Z,4.47
2023-03-05T11:35:35.650Z,1.35
2023-03-05T11:37:40.569Z,3.75
2023-03-05T11:39:46.433Z,2.30
2023-03-05T11:41:54.290Z,4.57
2023-03-05T11:44:06.230Z,4.38
2023-03-05T11:46:16.570Z,4.32
2023-03-05T11:48:27.276Z,3.65
2023-03-05T11:50:35.731Z,3.42
2023-03-05T11:52:48.870Z,5.28
2023-03-05T11:55:05.222Z,5.40
2023-03-05T11:57:15.061Z,6.25
2023-03-05T11:59:29.819Z,5.18
2023-03-05T12:01:38.838Z,4.95
2023-03-05T12:03:47.515Z,4.43
2023-03-05T12:05:58.531Z,3.13
2023-03-05T12:08:05.891Z,4.75
2023-03-05T12:10:21.351Z,9.10
2023-03-05T12:12:43.660Z,2.67
2023-03-05T12:14:59.066Z,5.30
2023-03-05T12:17:14.464Z,3.15
2023-03-05T12:19:40.514Z,4.20
2023-03-05T12:21:47.127Z,5.53
2023-03-05T12:23:59.058Z,6.50
2023-03-05T12:26:03.985Z,3.53
2023-03-05T12:28:20.678Z,6.38
2023-03-05T12:31:00.713Z,5.93
2023-03-05T12:33:08.394Z,5.50
2023-03-05T12:35:29.582Z,5.72
2023-03-05T12:40:38.487Z,8.65
2023-03-05T12:43:00.454Z,5.53
2023-03-05T12:45:29.246Z,5.25
2023-03-05T12:47:38.736Z,5.95
2023-03-05T12:49:49.288Z,6.70
2023-03-05T12:51:56.784Z,6.45
2023-03-05T12:54:29.984Z,7.88
2023-03-05T12:56:38.602Z,5.00
2023-03-05T12:58:49.196Z,7.07
2023-03-05T13:01:00.452Z,6.95
2023-03-05T13:03:15.193Z,8.52
2023-03-05T13:05:28.182Z,8.98
2023-03-05T13:07:33.263Z,7.80
2023-03-05T13:09:38.365Z,5.85
2023-03-05T13:11:45.438Z,10.48
2023-03-05T13:13:51.807Z,9.20
2023-03-05T13:15:57.215Z,7.90
2023-03-05T13:18:07.522Z,5.00
2023-03-05T13:20:34.258Z,8.68
2023-03-05T13:22:41.313Z,7.10
2023-03-05T13:24:47.064Z,6.37
2023-03-05T13:26:53.856Z,9.27
2023-03-05T13:29:15.282Z,5.50
2023-03-05T13:31:24.083Z,8.32
2023-03-05T13:33:35.202Z,10.32
2023-03-05T13:35:52.410Z,4.60
2023-03-05T13:37:59.754Z,5.70
2023-03-05T13:40:22.432Z,5.38
2023-03-05T13:42:33.211Z,3.40
2023-03-05T13:44:38.280Z,7.75
2023-03-05T13:46:43.177Z,4.38
2023-03-05T13:48:49.085Z,6.57
2023-03-05T13:51:06.874Z,7.65
2023-03-05T13:55:23.700Z,6.28
2023-03-05T13:57:42.430Z,6.10
2023-03-05T13:59:55.974Z,6.13
2023-03-05T14:02:03.527Z,5.72
2023-03-05T14:04:20.454Z,9.00
2023-03-05T14:06:31.330Z,4.80
2023-03-05T14:08:36.948Z,4.63
2023-03-05T14:10:47.451Z,6.30
2023-03-05T14:12:53.977Z,7.28
2023-03-05T14:14:59.830Z,6.18
2023-03-05T14:17:25.660Z,5.40
2023-03-05T14:19:41.670Z,5.05
2023-03-05T14:21:53.172Z,4.93
2023-03-05T14:23:59.097Z,8.25
2023-03-05T14:26:33.719Z,4.03
2023-03-05T14:28:38.697Z,7.97
2023-03-05T14:30:48.877Z,4.32
2023-03-05T14:32:57.077Z,5.93
2023-03-05T14:35:05.040Z,4.32
2023-03-05T14:37:26.569Z,4.88
2023-03-05T14:39:38.331Z,3.85
2023-03-05T14:41:44.789Z,3.88
2023-03-05T14:45:57.254Z,3.03
2023-03-05T14:48:06.775Z,3.25
2023-03-05T14:50:23.390Z,2.92
2023-03-05T14:52:33.450Z,3.20
2023-03-05T14:54:40.757Z,2.65
2023-03-05T14:56:46.275Z,3.78
2023-03-05T14:58:51.296Z,2.63
2023-03-05T15:00:57.272Z,4.90
2023-03-05T15:03:02.256Z,3.55
2023-03-05T15:05:11.116Z,3.38
2023-03-05T15:07:23.604Z,5.38
2023-03-05T15:09:31.695Z,2.58
2023-03-05T15:13:42.119Z,1.77
2023-03-05T15:15:49.044Z,2.30
2023-03-05T15:17:55.164Z,6.57
2023-03-05T15:20:00.913Z,4.38
2023-03-05T15:22:07.296Z,5.68
2023-03-05T15:24:15.028Z,5.05
2023-03-05T15:26:22.535Z,4.75
2023-03-05T15:28:29.488Z,2.00
2023-03-05T15:30:39.049Z,2.65
2023-03-05T15:32:48.107Z,4.60
2023-03-05T15:34:54.033Z,2.63
2023-03-05T15:36:58.910Z,8.38
2023-03-05T15:39:07.757Z,4.88
2023-03-05T15:41:17.706Z,5.97
2023-03-05T15:43:26.420Z,4.43
2023-03-05T15:45:33.931Z,4.72
2023-03-05T15:47:38.818Z,5.80
2023-03-05T15:49:43.694Z,6.72
2023-03-05T15:51:48.928Z,5.53
2023-03-05T15:53:54.484Z,9.27
2023-03-05T15:55:59.394Z,5.70
2023-03-05T16:00:34.469Z,5.30
2023-03-05T16:02:39.865Z,5.43
2023-03-05T16:04:45.921Z,4.30
2023-03-05T16:06:52.999Z,4.80
2023-03-05T16:09:03.231Z,5.97
2023-03-05T16:11:09.482Z,6.85
2023-03-05T16:13:20.593Z,7.45
2023-03-05T16:15:27.838Z,5.75
2023-03-05T16:17:37.832Z,10.18
2023-03-05T16:19:46.895Z,4.90
2023-03-05T16:21:52.328Z,9.30
2023-03-05T16:23:59.579Z,3.83
2023-03-05T16:26:04.781Z,5.10
2023-03-05T16:28:12.998Z,4.50
2023-03-05T16:32:26.438Z,4.00
2023-03-05T16:34:35.555Z,4.30
2023-03-05T16:36:40.481Z,5.53
2023-03-05T16:38:45.685Z,7.38
2023-03-05T16:41:07.196Z,6.78
2023-03-05T16:43:13.364Z,5.88
2023-03-05T16:45:20.881Z,7.25
2023-03-05T16:47:25.762Z,4.82
2023-03-05T16:49:33.304Z,5.22
2023-03-05T16:51:40.265Z,5.72
2023-03-05T16:53:48.072Z,7.82
2023-03-05T16:55:53.256Z,9.20
2023-03-05T16:57:59.878Z,6.57
2023-03-05T17:00:04.885Z,6.20
2023-03-05T17:02:10.063Z,4.47
2023-03-05T17:04:15.165Z,3.78
2023-03-05T17:06:29.277Z,6.03
2023-03-05T17:08:34.182Z,5.53
2023-03-05T17:10:39.220Z,6.55
2023-03-05T17:12:44.253Z,8.13
2023-03-05T17:14:49.615Z,6.20
2023-03-05T17:16:57.225Z,5.28
2023-03-05T17:21:10.225Z,7.50
2023-03-05T17:23:17.734Z,8.52
2023-03-05T17:25:23.935Z,7.30
2023-03-05T17:27:29.542Z,5.30
2023-03-05T17:29:34.509Z,5.85
2023-03-05T17:31:41.493Z,6.88
2023-03-05T17:33:46.764Z,5.87
2023-03-05T17:35:51.833Z,8.50
2023-03-05T17:37:56.906Z,9.18
2023-03-05T17:40:04.724Z,6.93
2023-03-05T17:42:09.696Z,6.28
2023-03-05T17:44:17.179Z,6.32
2023-03-05T17:46:22.154Z,6.30
2023-03-05T17:48:27.133Z,7.30
2023-03-05T17:50:33.930Z,6.20
2023-03-05T17:52:42.011Z,5.80
2023-03-05T17:54:48.948Z,5.72
2023-03-05T17:57:00.766Z,6.70
2023-03-05T17:59:06.146Z,6.28
2023-03-05T18:01:12.205Z,7.60
2023-03-05T18:03:18.172Z,7.13
2023-03-05T18:05:27.287Z,8.32
2023-03-05T18:07:35.733Z,7.10
2023-03-05T18:09:43.009Z,8.95
2023-03-05T18:11:50.642Z,9.25
2023-03-05T18:13:58.233Z,10.43
2023-03-05T18:16:03.905Z,9.20
2023-03-05T18:18:08.924Z,7.65
2023-03-05T18:20:29.445Z,9.93
2023-03-05T18:22:37.042Z,10.38
2023-03-05T18:24:42.325Z,9.07
2023-03-05T18:26:47.564Z,9.35
2023-03-05T18:28:53.480Z,7.68
2023-03-05T18:31:01.084Z,11.15
2023-03-05T18:33:11.289Z,9.32
2023-03-05T18:35:16.850Z,8.05
2023-03-05T18:37:21.943Z,8.40
2023-03-05T18:39:29.170Z,10.68
2023-03-05T18:41:34.270Z,11.98
2023-03-05T18:43:42.309Z,7.82
2023-03-05T18:45:53.809Z,12.00
2023-03-05T18:48:01.524Z,10.13
2023-03-05T18:52:14.537Z,9.68
2023-03-05T18:54:19.956Z,9.93
2023-03-05T18:56:25.005Z,8.95
2023-03-05T18:58:31.173Z,11.15
2023-03-05T19:00:36.290Z,11.63
2023-03-05T19:02:42.937Z,11.93
2023-03-05T19:04:51.826Z,13.57
2023-03-05T19:06:56.757Z,11.85
2023-03-05T19:09:09.834Z,13.93
2023-03-05T19:11:20.910Z,17.33
2023-03-05T19:13:35.821Z,10.75
2023-03-05T19:15:46.713Z,13.30
2023-03-05T19:17:52.308Z,12.82
2023-03-05T19:20:03.895Z,16.00
2023-03-05T19:22:08.929Z,14.95
2023-03-05T19:24:15.878Z,14.20
2023-03-05T19:26:21.848Z,16.58
2023-03-05T19:28:30.175Z,15.77
2023-03-05T19:30:35.102Z,13.52
2023-03-05T19:32:40.364Z,13.35
2023-03-05T19:34:49.128Z,13.68
2023-03-05T19:36:56.618Z,15.68
2023-03-05T19:39:02.934Z,11.15
2023-03-05T19:41:12.969Z,13.50
2023-03-05T19:43:18.276Z,17.00
2023-03-05T19:45:23.336Z,9.38
2023-03-05T19:47:30.725Z,12.02
2023-03-05T19:49:35.944Z,13.88
2023-03-05T19:51:40.941Z,11.18
2023-03-05T19:53:50.314Z,13.10
2023-03-05T19:55:55.406Z,12.25
2023-03-05T19:58:00.283Z,12.35
2023-03-05T20:00:06.375Z,15.10
2023-03-05T20:02:19.354Z,14.40
2023-03-05T20:04:27.972Z,11.85
2023-03-05T20:06:35.789Z,16.75
2023-03-05T20:10:48.836Z,16.38
2023-03-05T20:12:53.914Z,23.65
2023-03-05T20:14:58.872Z,25.33
2023-03-05T20:17:04.058Z,39.05
2023-03-05T20:19:11.545Z,30.90
2023-03-05T20:21:22.934Z,26.98
2023-03-05T20:23:28.886Z,24.52
2023-03-05T20:25:34.848Z,15.18
2023-03-05T20:27:42.601Z,18.67
2023-03-05T20:29:47.537Z,14.75
2023-03-05T20:31:57.452Z,17.15
2023-03-05T20:34:02.867Z,15.75
2023-03-05T20:36:10.257Z,16.20
2023-03-05T20:38:25.212Z,16.92
2023-03-05T20:40:30.224Z,22.42
2023-03-05T20:42:35.191Z,20.98
2023-03-05T20:44:43.185Z,26.48
2023-03-05T20:46:59.653Z,23.90
2023-03-05T20:49:06.827Z,19.88
2023-03-05T20:51:19.271Z,17.20
2023-03-05T20:53:27.087Z,21.50
2023-03-05T20:55:32.714Z,19.10
2023-03-05T20:57:39.156Z,17.60
2023-03-05T20:59:48.880Z,16.70
2023-03-05T21:01:53.810Z,19.80
2023-03-05T21:03:59.866Z,20.58
2023-03-05T21:06:06.468Z,23.25
2023-03-05T21:08:12.545Z,22.98
2023-03-05T21:10:20.444Z,20.02
2023-03-05T21:12:29.501Z,17.80
2023-03-05T21:14:37.961Z,22.45
2023-03-05T21:16:45.794Z,20.20
2023-03-05T21:20:57.527Z,22.23
2023-03-05T21:23:06.668Z,18.80
2023-03-05T21:25:20.751Z,19.55
2023-03-05T21:27:25.754Z,17.65
2023-03-05T21:29:30.677Z,18.40
2023-03-05T21:31:37.531Z,15.70
2023-03-05T21:33:46.179Z,14.93
2023-03-05T21:35:52.669Z,15.65
2023-03-05T21:37:59.752Z,15.57
2023-03-05T21:40:07.529Z,21.13
2023-03-05T21:42:13.300Z,17.23
2023-03-05T21:44:22.396Z,24.80
2023-03-05T21:46:27.359Z,32.03
2023-03-05T21:48:33.356Z,32.13
2023-03-05T21:50:53.476Z,19.48
2023-03-05T21:53:08.993Z,18.95
2023-03-05T21:55:19.197Z,18.00
2023-03-05T21:57:24.535Z,20.77
2023-03-05T21:59:29.896Z,20.95
2023-03-05T22:01:34.815Z,17.42
2023-03-05T22:03:41.234Z,19.02
2023-03-05T22:05:50.194Z,19.58
2023-03-05T22:07:55.548Z,21.02
2023-03-05T22:10:01.570Z,22.67
2023-03-05T22:12:10.147Z,15.55
2023-03-05T22:14:18.101Z,17.02
2023-03-05T22:18:33.707Z,17.87
2023-03-05T22:20:39.607Z,19.70
2023-03-05T22:22:47.166Z,16.02
2023-03-05T22:24:52.089Z,18.05
2023-03-05T22:26:57.309Z,16.60
2023-03-05T22:29:02.435Z,21.65
2023-03-05T22:31:11.238Z,13.55
2023-03-05T22:33:17.837Z,17.23
2023-03-05T22:35:24.283Z,20.40
2023-03-05T22:37:30.655Z,18.52
2023-03-05T22:39:38.192Z,16.33
2023-03-05T22:41:44.817Z,23.80
2023-03-05T22:43:53.539Z,16.95
2023-03-05T22:45:58.689Z,15.20
2023-03-05T22:48:03.765Z,17.15
2023-03-05T22:50:11.049Z,17.75
2023-03-05T22:52:18.442Z,15.82
2023-03-05T22:54:23.424Z,14.85
2023-03-05T22:56:31.452Z,16.15
2023-03-05T22:58:38.255Z,18.13
2023-03-05T23:00:44.350Z,17.33
2023-03-05T23:02:51.042Z,16.20
2023-03-05T23:04:57.772Z,16.95
2023-03-05T23:07:03.445Z,18.37
2023-03-05T23:09:08.367Z,18.48
2023-03-05T23:11:15.639Z,17.95
2023-03-05T23:13:23.647Z,16.75
2023-03-05T23:15:31.666Z,17.00
2023-03-05T23:17:37.952Z,15.85
2023-03-05T23:19:43.513Z,16.63
2023-03-05T23:21:51.351Z,14.55
2023-03-05T23:26:03.020Z,20.35
2023-03-05T23:28:08.201Z,17.90
2023-03-05T23:30:20.103Z,18.98
2023-03-05T23:32:25.443Z,18.58
2023-03-05T23:34:31.528Z,20.77
2023-03-05T23:36:36.450Z,18.52
2023-03-05T23:38:41.727Z,17.42
2023-03-05T23:40:49.694Z,17.83
2023-03-05T23:45:00.190Z,18.58
2023-03-05T23:47:24.040Z,16.30
2023-03-05T23:49:30.083Z,18.38
2023-03-05T23:51:35.027Z,18.10
2023-03-05T23:53:41.170Z,19.02
2023-03-05T23:55:47.644Z,20.20
2023-03-05T23:57:53.017Z,17.27
2023-03-05T23:59:58.620Z,22.98
